createdAt,value
2023-01-03T00:01:32.066Z,101070.41
2023-01-03T00:04:01.920Z,101069.38
2023-01-03T00:06:32.827Z,101078.38
2023-01-03T00:09:03.384Z,101078.38
2023-01-03T00:11:53.422Z,101088.78
2023-01-03T00:14:24.570Z,101084.13
2023-01-03T00:16:55.407Z,101085.94
2023-01-03T00:19:25.523Z,101084.53
2023-01-03T00:21:54.064Z,101082.09
2023-01-03T00:24:22.925Z,101080.66
2023-01-03T00:26:52.914Z,101095.78
2023-01-03T00:29:21.416Z,101084.78
2023-01-03T00:31:49.923Z,101101.94
2023-01-03T00:34:18.285Z,101083.56
2023-01-03T00:36:46.813Z,101088.06
2023-01-03T00:39:15.617Z,101083.56
2023-01-03T00:41:43.972Z,101089.06
2023-01-03T00:44:15.019Z,101093.78
2023-01-03T00:46:44.060Z,101090.31
2023-01-03T00:49:12.811Z,101089.72
2023-01-03T00:51:42.808Z,101094.22
2023-01-03T00:54:14.590Z,101099.94
2023-01-03T00:56:45.195Z,101102.81
2023-01-03T00:59:17.203Z,101104.84
2023-01-03T01:01:48.259Z,101108.72
2023-01-03T01:04:20.810Z,101109.97
2023-01-03T01:06:53.665Z,101107.47
2023-01-03T01:09:25.239Z,101111.16
2023-01-03T01:11:54.192Z,101112.19
2023-01-03T01:14:27.208Z,101113.19
2023-01-03T01:16:58.004Z,101111.56
2023-01-03T01:19:29.607Z,101119.53
2023-01-03T01:21:58.271Z,101115.25
2023-01-03T01:24:27.240Z,101124.25
2023-01-03T01:27:44.197Z,101113.84
2023-01-03T01:30:14.233Z,101119.38
2023-01-03T01:32:42.509Z,101132.63
2023-01-03T01:35:10.992Z,101139.78
2023-01-03T01:37:39.353Z,101136.31
2023-01-03T01:40:08.957Z,101135.69
2023-01-03T01:42:54.956Z,101132.22
2023-01-03T01:45:24.931Z,101134.25
2023-01-03T01:47:56.332Z,101135.28
2023-01-03T01:50:38.006Z,101144.28
2023-01-03T01:53:11.785Z,101142.63
2023-01-03T01:55:44.021Z,101143.06
2023-01-03T01:58:13.544Z,101150.19
2023-01-03T02:00:45.348Z,101146.72
2023-01-03T02:03:14.639Z,101140.81
2023-01-03T02:05:47.650Z,101149.78
2023-01-03T02:08:16.875Z,101144.69
2023-01-03T02:11:06.696Z,101151.00
2023-01-03T02:13:45.758Z,101147.75
2023-01-03T02:16:48.473Z,101148.38
2023-01-03T02:20:12.556Z,101153.25
2023-01-03T02:23:22.698Z,101150.81
2023-01-03T02:26:34.752Z,101146.75
2023-01-03T02:29:41.056Z,101156.53
2023-01-03T02:32:16.803Z,101153.88
2023-01-03T02:34:53.655Z,101148.75
2023-01-03T02:37:32.188Z,101144.50
2023-01-03T02:40:10.008Z,101142.06
2023-01-03T02:43:02.831Z,101148.34
2023-01-03T02:45:53.899Z,101154.06
2023-01-03T02:48:35.646Z,101152.44
2023-01-03T02:51:09.932Z,101150.00
2023-01-03T02:53:43.207Z,101159.00
2023-01-03T02:56:18.070Z,101154.69
2023-01-03T02:58:49.642Z,101150.41
2023-01-03T03:01:19.622Z,101151.22
2023-01-03T03:03:50.414Z,101147.75
2023-01-03T03:06:26.777Z,101145.50
2023-01-03T03:08:55.107Z,101149.19
2023-01-03T03:11:43.605Z,101152.66
2023-01-03T03:14:18.662Z,101151.22
2023-01-03T03:16:51.203Z,101161.00
2023-01-03T03:19:45.730Z,101172.41
2023-01-03T03:22:46.100Z,101174.66
2023-01-03T03:25:18.628Z,101177.72
2023-01-03T03:28:06.858Z,101180.34
2023-01-03T03:30:40.015Z,101175.28
2023-01-03T03:33:10.714Z,101174.47
2023-01-03T03:35:47.963Z,101186.91
2023-01-03T03:38:22.521Z,101182.59
2023-01-03T03:41:20.353Z,101186.91
2023-01-03T03:44:14.110Z,101196.06
2023-01-03T03:46:54.748Z,101185.84
2023-01-03T03:49:41.766Z,101185.03
2023-01-03T03:52:17.160Z,101190.56
2023-01-03T03:54:52.227Z,101190.56
2023-01-03T03:57:26.567Z,101194.22
2023-01-03T04:00:00.304Z,101188.31
2023-01-03T04:02:31.599Z,101187.50
2023-01-03T04:05:05.974Z,101198.91
2023-01-03T04:07:35.998Z,101190.97
2023-01-03T04:10:05.447Z,101196.25
2023-01-03T04:12:33.761Z,101191.78
2023-01-03T04:15:03.870Z,101183.00
2023-01-03T04:17:32.202Z,101183.81
2023-01-03T04:20:00.532Z,101187.50
2023-01-03T04:22:28.818Z,101185.84
2023-01-03T04:24:58.478Z,101190.31
2023-01-03T04:27:26.779Z,101198.28
2023-01-03T04:29:55.100Z,101199.31
2023-01-03T04:32:24.749Z,101197.69
2023-01-03T04:34:53.111Z,101194.22
2023-01-03T04:37:21.540Z,101195.22
2023-01-03T04:39:49.829Z,101188.50
2023-01-03T04:42:36.807Z,101207.06
2023-01-03T04:45:06.842Z,101210.69
2023-01-03T04:47:35.164Z,101216.22
2023-01-03T04:50:03.531Z,101211.72
2023-01-03T04:52:32.158Z,101210.91
2023-01-03T04:55:00.471Z,101215.19
2023-01-03T04:57:30.131Z,101207.63
2023-01-03T04:59:58.443Z,101207.44
2023-01-03T05:02:26.841Z,101207.63
2023-01-03T05:04:55.189Z,101210.28
2023-01-03T05:07:23.715Z,101206.00
2023-01-03T05:09:52.011Z,101206.81
2023-01-03T05:12:20.385Z,101209.47
2023-01-03T05:14:50.069Z,101208.66
2023-01-03T05:17:20.341Z,101212.13
2023-01-03T05:20:02.970Z,101211.31
2023-01-03T05:22:48.905Z,101205.59
2023-01-03T05:25:34.889Z,101213.75
2023-01-03T05:28:04.380Z,101208.63
2023-01-03T05:30:34.070Z,101213.13
2023-01-03T05:33:02.366Z,101218.41
2023-01-03T05:35:30.688Z,101227.16
2023-01-03T05:37:59.143Z,101222.91
2023-01-03T05:40:27.445Z,101222.09
2023-01-03T05:42:55.746Z,101225.53
2023-01-03T05:45:25.982Z,101220.25
2023-01-03T05:47:58.692Z,101233.50
2023-01-03T05:50:27.167Z,101231.44
2023-01-03T05:52:55.438Z,101230.03
2023-01-03T05:55:23.844Z,101229.22
2023-01-03T05:57:53.555Z,101225.72
2023-01-03T06:00:22.439Z,101226.56
2023-01-03T06:02:50.767Z,101233.88
2023-01-03T06:05:20.526Z,101225.13
2023-01-03T06:07:48.964Z,101233.22
2023-01-03T06:10:17.762Z,101221.22
2023-01-03T06:12:46.049Z,101233.66
2023-01-03T06:15:14.400Z,101228.53
2023-01-03T06:18:02.593Z,101230.38
2023-01-03T06:20:32.628Z,101225.66
2023-01-03T06:23:00.962Z,101231.16
2023-01-03T06:25:29.363Z,101227.09
2023-01-03T06:27:57.682Z,101237.69
2023-01-03T06:30:26.599Z,101240.50
2023-01-03T06:32:54.943Z,101233.59
2023-01-03T06:35:23.306Z,101240.28
2023-01-03T06:37:52.950Z,101248.22
2023-01-03T06:40:21.271Z,101247.81
2023-01-03T06:42:49.722Z,101241.28
2023-01-03T06:45:35.828Z,101244.91
2023-01-03T06:48:25.770Z,101239.19
2023-01-03T06:51:11.714Z,101250.38
2023-01-03T06:53:44.086Z,101246.72
2023-01-03T06:56:12.729Z,101238.94
2023-01-03T06:58:42.280Z,101255.03
2023-01-03T07:01:10.812Z,101252.38
2023-01-03T07:03:39.221Z,101254.59
2023-01-03T07:06:07.987Z,101260.06
2023-01-03T07:08:36.275Z,101269.03
2023-01-03T07:11:06.261Z,101274.72
2023-01-03T07:14:06.489Z,101270.66
2023-01-03T07:16:37.219Z,101280.81
2023-01-03T07:19:07.201Z,101282.00
2023-01-03T07:21:36.494Z,101281.19
2023-01-03T07:24:07.386Z,101281.56
2023-01-03T07:26:37.423Z,101286.22
2023-01-03T07:29:07.935Z,101291.72
2023-01-03T07:31:40.508Z,101293.13
2023-01-03T07:34:09.379Z,101300.25
2023-01-03T07:36:37.922Z,101312.81
2023-01-03T07:39:06.335Z,101314.03
2023-01-03T07:41:53.727Z,101309.94
2023-01-03T07:44:22.002Z,101320.72
2023-01-03T07:46:52.173Z,101317.63
2023-01-03T07:49:20.542Z,101315.34
2023-01-03T07:51:48.832Z,101317.19
2023-01-03T07:54:17.080Z,101322.69
2023-01-03T07:56:46.770Z,101329.16
2023-01-03T07:59:15.066Z,101324.06
2023-01-03T08:01:43.490Z,101330.34
2023-01-03T08:04:11.863Z,101331.56
2023-01-03T08:06:40.395Z,101320.56
2023-01-03T08:09:26.271Z,101323.19
2023-01-03T08:12:13.682Z,101332.53
2023-01-03T08:14:41.987Z,101334.72
2023-01-03T08:17:10.304Z,101332.25
2023-01-03T08:19:45.190Z,101337.75
2023-01-03T08:22:16.164Z,101346.06
2023-01-03T08:24:44.533Z,101351.34
2023-01-03T08:27:14.239Z,101349.88
2023-01-03T08:29:42.572Z,101353.75
2023-01-03T08:32:11.411Z,101355.53
2023-01-03T08:34:44.297Z,101349.59
2023-01-03T08:37:14.977Z,101353.63
2023-01-03T08:39:48.163Z,101354.63
2023-01-03T08:42:20.747Z,101357.47
2023-01-03T08:44:49.940Z,101357.03
2023-01-03T08:47:19.002Z,101366.94
2023-01-03T08:49:47.444Z,101365.31
2023-01-03T08:52:15.756Z,101371.63
2023-01-03T08:54:44.357Z,101365.06
2023-01-03T08:57:12.682Z,101373.81
2023-01-03T08:59:42.392Z,101375.00
2023-01-03T09:02:10.943Z,101381.31
2023-01-03T09:04:39.472Z,101378.00
2023-01-03T09:07:07.925Z,101380.84
2023-01-03T09:09:36.259Z,101392.44
2023-01-03T09:12:04.926Z,101391.97
2023-01-03T09:14:33.261Z,101398.25
2023-01-03T09:17:02.966Z,101405.38
2023-01-03T09:19:31.331Z,101405.56
2023-01-03T09:21:59.619Z,101399.00
2023-01-03T09:24:27.971Z,101409.38
2023-01-03T09:26:56.403Z,101392.91
2023-01-03T09:29:24.772Z,101395.72
2023-01-03T09:31:53.372Z,101393.91
2023-01-03T09:34:23.054Z,101392.25
2023-01-03T09:36:51.389Z,101401.19
2023-01-03T09:39:20.250Z,101396.91
2023-01-03T09:42:10.263Z,101399.53
2023-01-03T09:44:40.681Z,101401.38
2023-01-03T09:47:20.304Z,101387.53
2023-01-03T09:50:26.679Z,101393.63
2023-01-03T09:53:02.924Z,101388.34
2023-01-03T09:55:57.810Z,101388.34
2023-01-03T09:58:43.601Z,101390.34
2023-01-03T10:01:53.910Z,101390.53
2023-01-03T10:05:05.185Z,101387.44
2023-01-03T10:07:55.144Z,101381.97
2023-01-03T10:10:32.691Z,101382.63
2023-01-03T10:13:20.165Z,101382.41
2023-01-03T10:16:00.335Z,101383.88
2023-01-03T10:18:53.878Z,101388.16
2023-01-03T10:21:33.879Z,101382.88
2023-01-03T10:24:02.503Z,101377.22
2023-01-03T10:26:34.562Z,101383.31
2023-01-03T10:29:02.944Z,101369.94
2023-01-03T10:31:47.331Z,101375.03
2023-01-03T10:34:15.716Z,101370.41
2023-01-03T10:36:45.350Z,101366.53
2023-01-03T10:39:13.681Z,101361.69
2023-01-03T10:41:46.214Z,101362.16
2023-01-03T10:44:26.219Z,101365.44
2023-01-03T10:46:56.927Z,101358.16
2023-01-03T10:49:29.299Z,101364.06
2023-01-03T10:52:06.500Z,101355.56
2023-01-03T10:54:50.689Z,101357.84
2023-01-03T10:57:43.789Z,101356.66
2023-01-03T11:00:31.392Z,101366.66
2023-01-03T11:03:13.663Z,101366.31
2023-01-03T11:05:44.111Z,101365.75
2023-01-03T11:08:24.100Z,101366.00
2023-01-03T11:10:58.821Z,101360.34
2023-01-03T11:13:34.479Z,101353.69
2023-01-03T11:16:05.556Z,101368.16
2023-01-03T11:18:33.885Z,101357.00
2023-01-03T11:21:13.909Z,101357.44
2023-01-03T11:24:01.990Z,101339.56
2023-01-03T11:26:45.259Z,101346.72
2023-01-03T11:29:54.433Z,101337.81
2023-01-03T11:32:40.805Z,101343.31
2023-01-03T11:35:43.466Z,101329.88
2023-01-03T11:38:45.428Z,101333.63
2023-01-03T11:41:33.912Z,101334.88
2023-01-03T11:44:47.645Z,101332.84
2023-01-03T11:47:27.393Z,101329.63
2023-01-03T11:50:16.903Z,101333.91
2023-01-03T11:52:51.325Z,101324.78
2023-01-03T11:55:57.024Z,101322.13
2023-01-03T11:59:01.571Z,101319.47
2023-01-03T12:01:49.356Z,101316.25
2023-01-03T12:04:32.701Z,101312.56
2023-01-03T12:10:12.365Z,101317.75
2023-01-03T12:13:16.972Z,101316.94
2023-01-03T12:15:52.121Z,101322.84
2023-01-03T12:18:30.243Z,101316.50
2023-01-03T12:21:03.583Z,101318.19
2023-01-03T12:23:39.261Z,101317.75
2023-01-03T12:26:11.359Z,101312.28
2023-01-03T12:28:43.192Z,101312.91
2023-01-03T12:31:29.546Z,101313.31
2023-01-03T12:34:10.796Z,101305.00
2023-01-03T12:36:48.754Z,101310.94
2023-01-03T12:39:37.257Z,101305.84
2023-01-03T12:42:13.507Z,101305.47
2023-01-03T12:44:45.759Z,101303.25
2023-01-03T12:47:23.014Z,101312.63
2023-01-03T12:50:00.694Z,101296.94
2023-01-03T12:52:33.527Z,101298.81
2023-01-03T12:55:09.444Z,101301.88
2023-01-03T12:58:13.889Z,101292.91
2023-01-03T13:00:56.774Z,101288.03
2023-01-03T13:03:32.377Z,101280.53
2023-01-03T13:06:05.805Z,101290.16
2023-01-03T13:08:42.675Z,101280.78
2023-01-03T13:11:20.909Z,101280.41
2023-01-03T13:13:57.069Z,101273.03
2023-01-03T13:16:49.820Z,101268.56
2023-01-03T13:19:58.510Z,101273.69
2023-01-03T13:22:51.972Z,101270.22
2023-01-03T13:25:41.939Z,101265.72
2023-01-03T13:28:35.749Z,101265.34
2023-01-03T13:31:40.955Z,101262.69
2023-01-03T13:34:35.249Z,101262.25
2023-01-03T13:37:22.347Z,101250.66
2023-01-03T13:40:04.549Z,101247.59
2023-01-03T13:42:38.698Z,101244.56
2023-01-03T13:46:03.546Z,101246.38
2023-01-03T13:48:54.385Z,101256.38
2023-01-03T13:51:41.623Z,101242.94
2023-01-03T13:54:34.941Z,101244.56
2023-01-03T13:57:09.013Z,101243.38
2023-01-03T13:59:44.115Z,101252.94
2023-01-03T14:03:19.309Z,101247.63
2023-01-03T14:06:37.781Z,101247.63
2023-01-03T14:09:52.499Z,101240.31
2023-01-03T14:13:06.090Z,101236.66
2023-01-03T14:15:35.129Z,101239.50
2023-01-03T14:18:20.918Z,101235.84
2023-01-03T14:20:53.538Z,101232.16
2023-01-03T14:23:58.537Z,101235.84
2023-01-03T14:26:19.199Z,101231.97
2023-01-03T14:28:50.318Z,101232.81
2023-01-03T14:31:22.636Z,101242.97
2023-01-03T14:33:57.171Z,101235.88
2023-01-03T14:36:25.850Z,101234.03
2023-01-03T14:38:56.473Z,101243.38
2023-01-03T14:41:34.408Z,101236.69
2023-01-03T14:44:07.815Z,101241.97
2023-01-03T14:46:37.670Z,101245.22
2023-01-03T14:49:20.441Z,101239.94
2023-01-03T14:51:49.006Z,101248.69
2023-01-03T14:54:20.868Z,101247.88
2023-01-03T14:56:50.675Z,101255.66
2023-01-03T14:59:23.013Z,101260.31
2023-01-03T15:01:51.985Z,101258.47
2023-01-03T15:04:20.934Z,101261.13
2023-01-03T15:07:09.588Z,101250.75
2023-01-03T15:09:41.269Z,101261.13
2023-01-03T15:12:14.983Z,101270.94
2023-01-03T15:14:43.364Z,101259.28
2023-01-03T15:17:19.382Z,101260.09
2023-01-03T15:19:53.048Z,101259.09
2023-01-03T15:22:25.771Z,101257.47
2023-01-03T15:25:08.255Z,101258.69
2023-01-03T15:27:46.232Z,101269.09
2023-01-03T15:30:25.183Z,101269.91
2023-01-03T15:33:02.021Z,101275.19
2023-01-03T15:35:37.169Z,101275.19
2023-01-03T15:38:14.958Z,101276.84
2023-01-03T15:40:44.772Z,101280.50
2023-01-03T15:43:19.626Z,101291.91
2023-01-03T15:45:57.969Z,101293.75
2023-01-03T15:48:27.911Z,101291.91
2023-01-03T15:50:57.476Z,101295.59
2023-01-03T15:53:29.788Z,101293.75
2023-01-03T15:56:02.951Z,101281.31
2023-01-03T15:58:34.031Z,101292.94
2023-01-03T16:01:02.649Z,101299.88
2023-01-03T16:03:33.798Z,101294.56
2023-01-03T16:06:02.839Z,101306.84
2023-01-03T16:08:34.249Z,101312.94
2023-01-03T16:11:05.502Z,101313.75
2023-01-03T16:13:39.544Z,101313.97
2023-01-03T16:16:09.809Z,101322.75
2023-01-03T16:18:41.776Z,101315.78
2023-01-03T16:21:10.121Z,101310.47
2023-01-03T16:23:38.519Z,101303.56
2023-01-03T16:26:07.736Z,101308.03
2023-01-03T16:28:37.408Z,101305.38
2023-01-03T16:31:14.289Z,101311.72
2023-01-03T16:33:44.042Z,101312.75
2023-01-03T16:36:27.837Z,101314.56
2023-01-03T16:38:56.124Z,101309.25
2023-01-03T16:41:24.675Z,101311.91
2023-01-03T16:43:54.489Z,101319.84
2023-01-03T16:46:49.023Z,101323.53
2023-01-03T16:49:27.015Z,101324.56
2023-01-03T16:52:05.432Z,101330.03
2023-01-03T16:54:54.146Z,101328.63
2023-01-03T16:57:34.854Z,101317.22
2023-01-03T17:00:23.740Z,101322.91
2023-01-03T17:02:56.558Z,101317.59
2023-01-03T17:05:30.206Z,101324.75
2023-01-03T17:08:06.481Z,101329.03
2023-01-03T17:10:44.576Z,101335.13
2023-01-03T17:13:33.963Z,101325.94
2023-01-03T17:16:13.727Z,101332.69
2023-01-03T17:18:52.007Z,101328.38
2023-01-03T17:21:33.805Z,101318.00
2023-01-03T17:24:11.008Z,101322.50
2023-01-03T17:26:48.323Z,101326.13
2023-01-03T17:29:23.033Z,101317.56
2023-01-03T17:31:56.725Z,101322.88
2023-01-03T17:34:35.652Z,101329.19
2023-01-03T17:37:19.804Z,101327.53
2023-01-03T17:40:25.318Z,101338.53
2023-01-03T17:43:30.273Z,101329.78
2023-01-03T17:46:57.659Z,101339.78
2023-01-03T17:53:11.743Z,101343.00
2023-01-03T17:55:44.891Z,101346.66
2023-01-03T17:58:21.604Z,101355.44
2023-01-03T18:00:49.945Z,101338.53
2023-01-03T18:03:18.329Z,101339.34
2023-01-03T18:05:49.164Z,101346.66
2023-01-03T18:08:20.605Z,101331.59
2023-01-03T18:10:51.869Z,101347.69
2023-01-03T18:13:24.716Z,101346.88
2023-01-03T18:15:55.922Z,101349.72
2023-01-03T18:18:26.614Z,101354.19
2023-01-03T18:20:57.149Z,101358.69
2023-01-03T18:23:29.604Z,101338.50
2023-01-03T18:26:01.984Z,101362.53
2023-01-03T18:28:31.031Z,101349.50
2023-01-03T18:30:59.478Z,101351.34
2023-01-03T18:33:27.959Z,101355.00
2023-01-03T18:35:57.718Z,101350.91
2023-01-03T18:38:29.502Z,101344.97
2023-01-03T18:41:04.351Z,101337.84
2023-01-03T18:43:33.296Z,101339.88
2023-01-03T18:46:01.738Z,101338.44
2023-01-03T18:48:30.168Z,101343.13
2023-01-03T18:51:00.224Z,101338.81
2023-01-03T18:53:32.211Z,101340.03
2023-01-03T18:56:00.964Z,101338.56
2023-01-03T18:58:34.789Z,101332.63
2023-01-03T19:01:03.484Z,101336.09
2023-01-03T19:03:34.812Z,101335.50
2023-01-03T19:06:14.826Z,101339.16
2023-01-03T19:08:43.227Z,101340.97
2023-01-03T19:11:17.097Z,101345.44
2023-01-03T19:13:53.105Z,101345.44
2023-01-03T19:16:23.831Z,101342.19
2023-01-03T19:18:52.687Z,101337.06
2023-01-03T19:21:23.608Z,101341.78
2023-01-03T19:24:00.992Z,101341.78
2023-01-03T19:26:32.995Z,101342.16
2023-01-03T19:29:04.625Z,101332.38
2023-01-03T19:31:44.252Z,101330.31
2023-01-03T19:34:17.654Z,101332.16
2023-01-03T19:36:47.990Z,101327.84
2023-01-03T19:39:24.696Z,101331.09
2023-01-03T19:42:13.807Z,101336.59
2023-01-03T19:44:42.908Z,101330.22
2023-01-03T19:47:16.117Z,101334.72
2023-01-03T19:49:47.173Z,101327.78
2023-01-03T19:52:18.004Z,101323.91
2023-01-03T19:54:46.511Z,101337.13
2023-01-03T19:57:21.129Z,101327.94
2023-01-03T19:59:54.040Z,101323.66
2023-01-03T20:02:37.233Z,101322.22
2023-01-03T20:05:14.767Z,101316.94
2023-01-03T20:07:45.057Z,101309.16
2023-01-03T20:10:19.845Z,101321.59
2023-01-03T20:12:49.902Z,101320.13
2023-01-03T20:15:27.778Z,101327.25
2023-01-03T20:17:57.059Z,101307.28
2023-01-03T20:20:30.300Z,101306.47
2023-01-03T20:23:06.233Z,101304.03
2023-01-03T20:25:38.249Z,101302.41
2023-01-03T20:28:06.941Z,101301.56
2023-01-03T20:30:36.148Z,101290.38
2023-01-03T20:33:04.564Z,101300.31
2023-01-03T20:36:08.804Z,101295.22
2023-01-03T20:38:27.202Z,101293.78
2023-01-03T20:40:57.344Z,101290.53
2023-01-03T20:43:26.627Z,101291.50
2023-01-03T20:45:57.623Z,101287.25
2023-01-03T20:48:26.908Z,101283.94
2023-01-03T20:50:55.414Z,101286.59
2023-01-03T20:53:27.608Z,101285.78
2023-01-03T20:55:56.041Z,101278.88
2023-01-03T20:58:26.374Z,101280.69
2023-01-03T21:01:02.135Z,101274.59
2023-01-03T21:03:34.246Z,101273.97
2023-01-03T21:06:03.457Z,101280.06
2023-01-03T21:08:50.645Z,101279.44
2023-01-03T21:11:18.943Z,101281.47
2023-01-03T21:13:47.257Z,101273.72
2023-01-03T21:16:28.993Z,101273.09
2023-01-03T21:18:57.814Z,101262.50
2023-01-03T21:21:26.443Z,101267.78
2023-01-03T21:23:56.129Z,101262.72
2023-01-03T21:26:24.463Z,101269.63
2023-01-03T21:28:52.761Z,101265.97
2023-01-03T21:31:24.036Z,101265.16
2023-01-03T21:33:53.318Z,101261.69
2023-01-03T21:36:26.346Z,101252.75
2023-01-03T21:38:57.198Z,101255.38
2023-01-03T21:41:28.087Z,101250.09
2023-01-03T21:43:57.606Z,101257.84
2023-01-03T21:46:27.458Z,101258.88
2023-01-03T21:48:57.065Z,101263.97
2023-01-03T21:51:41.145Z,101256.22
2023-01-03T21:54:11.163Z,101255.38
2023-01-03T21:56:45.667Z,101251.75
2023-01-03T21:59:15.570Z,101250.09
2023-01-03T22:02:02.721Z,101258.03
2023-01-03T22:04:31.547Z,101256.41
2023-01-03T22:07:01.860Z,101250.09
2023-01-03T22:09:50.695Z,101260.69
2023-01-03T22:12:21.466Z,101250.31
2023-01-03T22:14:49.860Z,101253.75
2023-01-03T22:17:18.426Z,101242.38
2023-01-03T22:19:46.752Z,101232.81
2023-01-03T22:22:15.064Z,101230.16
2023-01-03T22:24:44.783Z,101218.75
2023-01-03T22:27:13.121Z,101230.34
2023-01-03T22:29:41.428Z,101221.78
2023-01-03T22:32:10.427Z,101228.91
2023-01-03T22:34:39.759Z,101238.66
2023-01-03T22:37:08.141Z,101247.59
2023-01-03T22:39:36.550Z,101237.22
2023-01-03T22:42:06.442Z,101247.38
2023-01-03T22:44:34.987Z,101256.28
2023-01-03T22:47:03.717Z,101264.63
2023-01-03T22:49:32.196Z,101256.88
2023-01-03T22:52:00.578Z,101258.06
2023-01-03T22:54:28.885Z,101261.72
2023-01-03T22:56:57.643Z,101258.47
2023-01-03T22:59:27.417Z,101260.47
2023-01-03T23:01:55.905Z,101267.59
2023-01-03T23:04:26.348Z,101258.22
2023-01-03T23:06:55.384Z,101254.97
2023-01-03T23:09:24.814Z,101245.38
2023-01-03T23:12:10.522Z,101248.88
2023-01-03T23:14:40.215Z,101241.09
2023-01-03T23:17:26.196Z,101243.75
2023-01-03T23:19:54.490Z,101240.06
2023-01-03T23:22:22.799Z,101249.41
2023-01-03T23:24:51.114Z,101239.84
2023-01-03T23:27:19.432Z,101232.13
2023-01-03T23:29:49.093Z,101223.34
2023-01-03T23:32:17.437Z,101215.41
2023-01-03T23:34:45.720Z,101208.34
2023-01-03T23:37:14.033Z,101205.69
2023-01-03T23:39:42.957Z,101203.84
2023-01-03T23:42:11.326Z,101199.19
2023-01-03T23:44:39.886Z,101201.81
2023-01-03T23:47:12.335Z,101200.19
2023-01-03T23:49:41.384Z,101193.06
2023-01-03T23:52:09.832Z,101202.63
2023-01-03T23:54:38.184Z,101190.44
2023-01-03T23:57:06.510Z,101200.19
2023-01-03T23:59:34.819Z,101201.22
